createdAt,value
2018-08-02T00:00:17.213Z,0.00
2018-08-02T00:01:17.206Z,0.00
2018-08-02T00:02:17.188Z,0.00
2018-08-02T00:03:17.387Z,0.00
2018-08-02T00:04:17.160Z,0.00
2018-08-02T00:05:17.148Z,0.00
2018-08-02T00:06:17.134Z,0.00
2018-08-02T00:07:17.125Z,0.00
2018-08-02T00:08:17.106Z,0.00
2018-08-02T00:09:17.093Z,0.00
2018-08-02T00:10:17.084Z,0.00
2018-08-02T00:11:17.072Z,0.00
2018-08-02T00:12:17.053Z,0.00
2018-08-02T00:13:17.043Z,0.00
2018-08-02T00:14:17.028Z,0.00
2018-08-02T00:15:17.020Z,0.00
2018-08-02T00:16:17.000Z,0.00
2018-08-02T00:17:16.986Z,0.00
2018-08-02T00:18:16.973Z,0.00
2018-08-02T00:19:16.960Z,0.00
2018-08-02T00:20:16.951Z,0.00
2018-08-02T00:21:16.933Z,0.00
2018-08-02T00:22:16.920Z,0.00
2018-08-02T00:23:16.907Z,0.00
2018-08-02T00:24:16.898Z,0.00
2018-08-02T00:25:16.884Z,0.00
2018-08-02T00:26:16.867Z,0.00
2018-08-02T00:27:16.859Z,0.00
2018-08-02T00:28:16.840Z,0.00
2018-08-02T00:29:16.831Z,0.00
2018-08-02T00:30:16.814Z,0.00
2018-08-02T00:31:16.801Z,0.00
2018-08-02T00:32:16.787Z,0.00
2018-08-02T00:33:16.773Z,0.00
2018-08-02T00:34:16.762Z,0.00
2018-08-02T00:35:16.759Z,0.00
2018-08-02T00:36:16.736Z,0.00
2018-08-02T00:37:16.722Z,0.00
2018-08-02T00:38:16.716Z,0.00
2018-08-02T00:39:16.702Z,0.00
2018-08-02T00:40:16.690Z,0.00
2018-08-02T00:41:16.673Z,0.00
2018-08-02T00:42:16.664Z,0.00
2018-08-02T00:43:16.641Z,0.00
2018-08-02T00:44:16.633Z,0.00
2018-08-02T00:45:16.623Z,0.00
2018-08-02T00:46:16.605Z,0.00
2018-08-02T00:47:16.590Z,0.00
2018-08-02T00:48:16.580Z,0.00
2018-08-02T00:49:16.562Z,0.00
2018-08-02T00:50:16.548Z,0.00
2018-08-02T00:51:16.536Z,0.00
2018-08-02T00:52:16.526Z,0.00
2018-08-02T00:53:16.512Z,0.00
2018-08-02T00:54:16.502Z,0.00
2018-08-02T00:55:16.486Z,0.00
2018-08-02T00:56:16.469Z,0.00
2018-08-02T00:57:16.456Z,0.00
2018-08-02T00:58:16.444Z,0.00
2018-08-02T00:59:16.431Z,0.00
2018-08-02T01:00:16.423Z,0.00
2018-08-02T01:01:16.480Z,0.00
2018-08-02T01:02:16.387Z,0.00
2018-08-02T01:03:16.373Z,0.00
2018-08-02T01:04:16.361Z,0.00
2018-08-02T01:05:16.351Z,0.00
2018-08-02T01:06:16.333Z,0.00
2018-08-02T01:07:16.320Z,0.00
2018-08-02T01:08:16.307Z,0.00
2018-08-02T01:09:16.294Z,0.00
2018-08-02T01:10:16.285Z,0.00
2018-08-02T01:11:16.273Z,0.00
2018-08-02T01:12:16.254Z,0.00
2018-08-02T01:13:16.241Z,0.00
2018-08-02T01:14:16.228Z,0.00
2018-08-02T01:15:16.261Z,0.00
2018-08-02T01:16:16.202Z,0.00
2018-08-02T01:17:16.192Z,0.00
2018-08-02T01:18:16.185Z,0.00
2018-08-02T01:19:16.163Z,0.00
2018-08-02T01:20:16.149Z,0.00
2018-08-02T01:21:16.141Z,0.00
2018-08-02T01:22:16.126Z,0.00
2018-08-02T01:23:16.109Z,0.00
2018-08-02T01:24:16.100Z,0.00
2018-08-02T01:25:16.090Z,0.00
2018-08-02T01:26:16.071Z,0.00
2018-08-02T01:27:16.058Z,0.00
2018-08-02T01:28:16.048Z,0.00
2018-08-02T01:29:16.039Z,0.00
2018-08-02T01:30:16.018Z,0.00
2018-08-02T01:31:16.014Z,0.00
2018-08-02T01:32:15.995Z,0.00
2018-08-02T01:33:15.987Z,0.00
2018-08-02T01:34:15.969Z,0.00
2018-08-02T01:35:15.964Z,0.00
2018-08-02T01:36:15.946Z,0.00
2018-08-02T01:37:15.927Z,0.00
2018-08-02T01:38:15.916Z,0.00
2018-08-02T01:39:15.903Z,0.00
2018-08-02T01:40:15.888Z,0.00
2018-08-02T01:41:15.882Z,0.00
2018-08-02T01:42:15.867Z,0.00
2018-08-02T01:43:15.856Z,0.00
2018-08-02T01:44:15.838Z,0.00
2018-08-02T01:45:15.831Z,0.00
2018-08-02T01:46:15.810Z,0.00
2018-08-02T01:47:15.800Z,0.00
2018-08-02T01:48:15.790Z,0.00
2018-08-02T01:49:15.779Z,0.00
2018-08-02T01:50:15.768Z,0.00
2018-08-02T01:51:15.744Z,0.00
2018-08-02T01:52:15.733Z,0.00
2018-08-02T01:53:15.728Z,0.00
2018-08-02T01:54:15.713Z,0.00
2018-08-02T01:55:15.692Z,0.00
2018-08-02T01:56:15.682Z,0.00
2018-08-02T01:57:15.674Z,0.00
2018-08-02T01:58:15.657Z,0.00
2018-08-02T01:59:15.641Z,0.00
2018-08-02T02:00:15.630Z,0.00
2018-08-02T02:01:15.617Z,0.00
2018-08-02T02:02:15.606Z,0.00
2018-08-02T02:03:15.595Z,0.00
2018-08-02T02:04:15.577Z,0.00
2018-08-02T02:05:15.563Z,0.00
2018-08-02T02:06:15.548Z,0.00
2018-08-02T02:07:15.541Z,0.00
2018-08-02T02:08:15.531Z,0.00
2018-08-02T02:09:15.518Z,0.00
2018-08-02T02:10:15.506Z,0.00
2018-08-02T02:11:15.487Z,0.00
2018-08-02T02:12:15.475Z,0.00
2018-08-02T02:13:15.460Z,0.00
2018-08-02T02:14:15.454Z,0.00
2018-08-02T02:15:15.440Z,0.00
2018-08-02T02:16:15.630Z,0.00
2018-08-02T02:17:15.413Z,0.00
2018-08-02T02:18:15.394Z,0.00
2018-08-02T02:19:15.381Z,0.00
2018-08-02T02:20:15.373Z,0.00
2018-08-02T02:21:15.357Z,0.00
2018-08-02T02:22:15.351Z,0.00
2018-08-02T02:23:15.329Z,0.00
2018-08-02T02:24:15.320Z,0.00
2018-08-02T02:25:15.312Z,0.00
2018-08-02T02:26:15.295Z,0.00
2018-08-02T02:27:15.280Z,0.00
2018-08-02T02:28:15.267Z,0.00
2018-08-02T02:29:15.253Z,0.00
2018-08-02T02:30:15.242Z,0.00
2018-08-02T02:31:15.226Z,0.00
2018-08-02T02:32:15.214Z,0.00
2018-08-02T02:33:15.208Z,0.00
2018-08-02T02:34:15.187Z,0.00
2018-08-02T02:35:15.182Z,0.00
2018-08-02T02:36:15.162Z,0.00
2018-08-02T02:37:15.156Z,0.00
2018-08-02T02:38:15.140Z,0.00
2018-08-02T02:39:15.126Z,0.00
2018-08-02T02:40:15.112Z,0.00
2018-08-02T02:41:15.097Z,0.00
2018-08-02T02:42:15.088Z,0.00
2018-08-02T02:43:15.073Z,0.00
2018-08-02T02:44:15.060Z,0.00
2018-08-02T02:45:15.052Z,0.00
2018-08-02T02:46:15.033Z,0.00
2018-08-02T02:47:15.029Z,0.00
2018-08-02T02:48:15.013Z,0.00
2018-08-02T02:49:14.994Z,0.00
2018-08-02T02:50:14.988Z,0.00
2018-08-02T02:51:14.969Z,0.00
2018-08-02T02:52:14.966Z,0.00
2018-08-02T02:53:14.943Z,0.00
2018-08-02T02:54:14.933Z,0.00
2018-08-02T02:55:14.925Z,0.00
2018-08-02T02:56:14.913Z,0.00
2018-08-02T02:57:14.892Z,0.00
2018-08-02T02:58:14.887Z,0.00
2018-08-02T02:59:14.868Z,0.00
2018-08-02T03:00:14.855Z,0.00
2018-08-02T03:01:14.841Z,0.00
2018-08-02T03:02:14.865Z,0.00
2018-08-02T03:03:14.823Z,0.00
2018-08-02T03:04:14.808Z,0.00
2018-08-02T03:05:14.793Z,0.00
2018-08-02T03:06:14.785Z,0.00
2018-08-02T03:07:14.772Z,0.00
2018-08-02T03:08:14.759Z,0.00
2018-08-02T03:09:14.739Z,0.00
2018-08-02T03:10:14.734Z,0.00
2018-08-02T03:11:14.722Z,0.00
2018-08-02T03:12:14.700Z,0.00
2018-08-02T03:13:14.697Z,0.00
2018-08-02T03:14:14.688Z,0.00
2018-08-02T03:15:14.672Z,0.00
2018-08-02T03:16:14.649Z,0.00
2018-08-02T03:17:14.641Z,0.00
2018-08-02T03:18:14.630Z,0.00
2018-08-02T03:19:14.611Z,0.00
2018-08-02T03:20:14.599Z,0.00
2018-08-02T03:21:14.596Z,0.00
2018-08-02T03:22:14.578Z,0.00
2018-08-02T03:23:14.560Z,0.00
2018-08-02T03:24:14.549Z,0.00
2018-08-02T03:25:14.535Z,0.00
2018-08-02T03:26:14.523Z,0.00
2018-08-02T03:27:14.531Z,0.00
2018-08-02T03:28:14.500Z,0.00
2018-08-02T03:29:14.486Z,0.00
2018-08-02T03:30:14.474Z,0.00
2018-08-02T03:31:14.457Z,0.00
2018-08-02T03:32:14.453Z,0.00
2018-08-02T03:33:14.430Z,0.00
2018-08-02T03:34:14.426Z,0.00
2018-08-02T03:35:14.410Z,0.00
2018-08-02T03:36:14.397Z,0.00
2018-08-02T03:37:14.383Z,0.00
2018-08-02T03:38:14.372Z,0.00
2018-08-02T03:39:14.362Z,0.00
2018-08-02T03:40:14.348Z,0.00
2018-08-02T03:41:14.338Z,0.00
2018-08-02T03:42:14.320Z,0.00
2018-08-02T03:43:14.303Z,0.00
2018-08-02T03:44:14.302Z,0.00
2018-08-02T03:45:14.279Z,0.00
2018-08-02T03:46:14.267Z,0.00
2018-08-02T03:47:14.254Z,0.00
2018-08-02T03:48:14.248Z,0.00
2018-08-02T03:49:14.231Z,0.00
2018-08-02T03:50:14.219Z,0.00
2018-08-02T03:51:14.207Z,0.00
2018-08-02T03:52:14.191Z,0.00
2018-08-02T03:53:14.176Z,0.00
2018-08-02T03:54:14.167Z,0.00
2018-08-02T03:55:14.150Z,0.00
2018-08-02T03:56:14.141Z,0.00
2018-08-02T03:57:14.126Z,0.00
2018-08-02T03:58:14.119Z,0.00
2018-08-02T03:59:14.105Z,0.00
2018-08-02T04:00:14.087Z,0.00
2018-08-02T04:01:14.074Z,0.00
2018-08-02T04:02:14.064Z,0.00
2018-08-02T04:03:14.048Z,0.00
2018-08-02T04:04:14.038Z,0.00
2018-08-02T04:05:14.024Z,0.00
2018-08-02T04:06:14.013Z,0.00
2018-08-02T04:07:14.007Z,0.00
2018-08-02T04:08:13.991Z,0.00
2018-08-02T04:09:13.972Z,0.00
2018-08-02T04:10:13.960Z,0.00
2018-08-02T04:11:13.947Z,0.00
2018-08-02T04:12:13.942Z,0.00
2018-08-02T04:13:13.923Z,0.00
2018-08-02T04:14:13.907Z,0.00
2018-08-02T04:15:13.896Z,0.00
2018-08-02T04:16:13.888Z,0.00
2018-08-02T04:17:13.877Z,0.00
2018-08-02T04:18:13.858Z,0.00
2018-08-02T04:19:13.846Z,0.00
2018-08-02T04:20:13.832Z,0.00
2018-08-02T04:21:13.821Z,0.00
2018-08-02T04:22:13.808Z,0.00
2018-08-02T04:23:13.794Z,0.00
2018-08-02T04:24:13.781Z,0.00
2018-08-02T04:25:13.771Z,0.00
2018-08-02T04:26:13.755Z,0.00
2018-08-02T04:27:13.744Z,0.00
2018-08-02T04:28:13.735Z,0.00
2018-08-02T04:29:13.716Z,0.00
2018-08-02T04:30:13.704Z,0.00
2018-08-02T04:31:13.694Z,0.00
2018-08-02T04:32:13.680Z,0.00
2018-08-02T04:33:13.670Z,0.00
2018-08-02T04:34:13.655Z,0.00
2018-08-02T04:35:13.640Z,0.00
2018-08-02T04:36:13.629Z,0.00
2018-08-02T04:37:13.614Z,0.00
2018-08-02T04:38:13.602Z,0.00
2018-08-02T04:39:13.589Z,0.00
2018-08-02T04:40:13.578Z,0.00
2018-08-02T04:41:13.572Z,0.00
2018-08-02T04:42:13.569Z,0.00
2018-08-02T04:43:13.538Z,0.00
2018-08-02T04:44:13.526Z,0.00
2018-08-02T04:45:13.512Z,0.00
2018-08-02T04:46:13.503Z,0.00
2018-08-02T04:47:13.487Z,0.00
2018-08-02T04:48:13.488Z,0.00
2018-08-02T04:49:13.461Z,0.00
2018-08-02T04:50:13.449Z,0.00
2018-08-02T04:51:13.438Z,0.00
2018-08-02T04:52:13.423Z,0.00
2018-08-02T04:53:13.410Z,0.00
2018-08-02T04:54:13.398Z,0.00
2018-08-02T04:55:13.385Z,0.00
2018-08-02T04:56:13.373Z,0.00
2018-08-02T04:57:13.360Z,0.00
2018-08-02T04:58:13.347Z,0.00
2018-08-02T04:59:13.334Z,0.00
2018-08-02T05:00:13.321Z,0.00
2018-08-02T05:01:13.353Z,0.00
2018-08-02T05:02:13.296Z,0.00
2018-08-02T05:03:13.284Z,0.00
2018-08-02T05:04:13.271Z,0.00
2018-08-02T05:05:13.257Z,0.00
2018-08-02T05:06:13.245Z,0.00
2018-08-02T05:07:13.234Z,0.00
2018-08-02T05:08:13.289Z,0.00
2018-08-02T05:09:13.209Z,0.00
2018-08-02T05:10:13.194Z,0.00
2018-08-02T05:11:13.181Z,0.00
2018-08-02T05:12:13.168Z,0.00
2018-08-02T05:13:13.155Z,0.00
2018-08-02T05:14:13.144Z,0.00
2018-08-02T05:15:13.130Z,0.00
2018-08-02T05:16:13.118Z,0.00
2018-08-02T05:17:13.106Z,0.00
2018-08-02T05:18:13.092Z,0.00
2018-08-02T05:19:13.080Z,0.00
2018-08-02T05:20:13.067Z,0.00
2018-08-02T05:21:13.053Z,0.00
2018-08-02T05:22:13.046Z,0.00
2018-08-02T05:23:13.028Z,0.00
2018-08-02T05:24:13.015Z,0.00
2018-08-02T05:25:13.002Z,0.00
2018-08-02T05:26:13.212Z,0.00
2018-08-02T05:27:12.976Z,0.00
2018-08-02T05:28:12.965Z,0.00
2018-08-02T05:29:12.951Z,0.00
2018-08-02T05:30:12.938Z,0.00
2018-08-02T05:31:12.929Z,0.00
2018-08-02T05:32:12.914Z,0.00
2018-08-02T05:33:12.902Z,0.00
2018-08-02T05:34:12.898Z,0.00
2018-08-02T05:35:13.016Z,0.00
2018-08-02T05:36:13.106Z,0.00
2018-08-02T05:37:12.848Z,0.00
2018-08-02T05:38:12.836Z,0.00
2018-08-02T05:39:12.824Z,0.00
2018-08-02T05:40:12.811Z,0.00
2018-08-02T05:41:12.797Z,0.00
2018-08-02T05:42:12.788Z,0.00
2018-08-02T05:43:12.772Z,0.00
2018-08-02T05:44:12.760Z,0.00
2018-08-02T05:45:12.747Z,0.00
2018-08-02T05:46:12.733Z,0.00
2018-08-02T05:47:12.721Z,0.00
2018-08-02T05:48:12.708Z,0.00
2018-08-02T05:49:12.699Z,0.00
2018-08-02T05:50:12.683Z,0.00
2018-08-02T05:51:12.671Z,0.00
2018-08-02T05:52:12.662Z,0.00
2018-08-02T05:53:12.644Z,0.00
2018-08-02T05:54:12.633Z,0.00
2018-08-02T05:55:12.620Z,0.00
2018-08-02T05:56:12.757Z,0.00
2018-08-02T05:57:12.593Z,0.00
2018-08-02T05:58:12.583Z,0.00
2018-08-02T05:59:12.570Z,0.00
2018-08-02T06:00:12.556Z,0.00
2018-08-02T06:01:12.543Z,0.00
2018-08-02T06:02:12.530Z,0.00
2018-08-02T06:03:12.518Z,0.00
2018-08-02T06:04:12.504Z,0.00
2018-08-02T06:05:12.493Z,0.00
2018-08-02T06:06:12.479Z,0.00
2018-08-02T06:07:12.467Z,0.00
2018-08-02T06:08:12.456Z,0.00
2018-08-02T06:09:12.440Z,0.00
2018-08-02T06:10:12.453Z,0.00
2018-08-02T06:11:12.415Z,0.00
2018-08-02T06:12:12.402Z,0.00
2018-08-02T06:13:12.389Z,0.00
2018-08-02T06:14:12.380Z,0.00
2018-08-02T06:15:12.363Z,0.00
2018-08-02T06:16:12.351Z,0.00
2018-08-02T06:17:12.338Z,0.00
2018-08-02T06:18:12.332Z,0.00
2018-08-02T06:19:12.312Z,0.00
2018-08-02T06:20:12.400Z,0.00
2018-08-02T06:21:12.286Z,0.00
2018-08-02T06:22:12.274Z,0.00
2018-08-02T06:23:12.262Z,0.00
2018-08-02T06:24:12.265Z,0.00
2018-08-02T06:25:12.236Z,0.00
2018-08-02T06:26:12.329Z,0.00
2018-08-02T06:27:12.213Z,0.00
2018-08-02T06:28:12.201Z,0.00
2018-08-02T06:29:12.187Z,0.00
2018-08-02T06:30:12.222Z,0.00
2018-08-02T06:31:12.160Z,0.00
2018-08-02T06:32:12.298Z,0.00
2018-08-02T06:33:12.134Z,0.00
2018-08-02T06:34:12.123Z,0.00
2018-08-02T06:35:12.109Z,0.00
2018-08-02T06:36:12.099Z,0.00
2018-08-02T06:37:12.082Z,0.00
2018-08-02T06:38:12.069Z,0.00
2018-08-02T06:39:12.063Z,0.00
2018-08-02T06:40:12.046Z,0.00
2018-08-02T06:41:12.031Z,0.00
2018-08-02T06:42:12.019Z,0.00
2018-08-02T06:43:12.007Z,0.00
2018-08-02T06:44:12.144Z,0.00
2018-08-02T06:45:11.980Z,0.00
2018-08-02T06:46:11.972Z,0.00
2018-08-02T06:47:11.959Z,0.00
2018-08-02T06:48:11.943Z,0.00
2018-08-02T06:49:11.929Z,0.00
2018-08-02T06:50:11.917Z,0.00
2018-08-02T06:51:11.904Z,0.00
2018-08-02T06:52:11.891Z,0.00
2018-08-02T06:53:11.878Z,0.00
2018-08-02T06:54:11.865Z,0.00
2018-08-02T06:55:11.853Z,0.00
2018-08-02T06:56:11.840Z,0.00
2018-08-02T06:57:11.829Z,0.00
2018-08-02T06:58:11.833Z,0.00
2018-08-02T06:59:11.852Z,0.00
2018-08-02T07:00:11.790Z,0.00
2018-08-02T07:01:11.776Z,0.00
2018-08-02T07:02:11.864Z,0.00
2018-08-02T07:03:11.758Z,0.00
2018-08-02T07:04:11.739Z,0.00
2018-08-02T07:05:11.726Z,0.00
2018-08-02T07:06:11.807Z,0.00
2018-08-02T07:07:11.701Z,0.00
2018-08-02T07:08:11.889Z,0.00
2018-08-02T07:09:11.675Z,0.00
2018-08-02T07:10:11.662Z,0.00
2018-08-02T07:11:11.650Z,0.00
2018-08-02T07:12:11.676Z,0.00
2018-08-02T07:13:11.624Z,0.00
2018-08-02T07:14:11.711Z,0.00
2018-08-02T07:15:11.599Z,0.00
2018-08-02T07:16:11.587Z,0.00
2018-08-02T07:17:11.574Z,0.00
2018-08-02T07:18:11.594Z,0.00
2018-08-02T07:19:11.549Z,0.00
2018-08-02T07:20:11.736Z,0.00
2018-08-02T07:21:11.523Z,0.00
2018-08-02T07:22:11.509Z,0.00
2018-08-02T07:23:11.497Z,0.00
2018-08-02T07:24:11.484Z,0.00
2018-08-02T07:25:11.474Z,0.00
2018-08-02T07:26:11.458Z,0.00
2018-08-02T07:27:11.446Z,0.00
2018-08-02T07:28:11.434Z,0.00
2018-08-02T07:29:11.424Z,0.00
2018-08-02T07:30:11.409Z,0.00
2018-08-02T07:31:11.394Z,0.00
2018-08-02T07:32:11.482Z,0.00
2018-08-02T07:33:11.373Z,0.00
2018-08-02T07:34:11.359Z,0.00
2018-08-02T07:35:11.346Z,0.00
2018-08-02T07:36:11.333Z,0.00
2018-08-02T07:37:11.319Z,0.00
2018-08-02T07:38:11.407Z,0.00
2018-08-02T07:39:11.293Z,0.00
2018-08-02T07:40:11.280Z,0.00
2018-08-02T07:41:11.265Z,0.00
2018-08-02T07:42:11.258Z,0.00
2018-08-02T07:43:11.268Z,0.00
2018-08-02T07:44:11.354Z,0.00
2018-08-02T07:45:11.215Z,0.00
2018-08-02T07:46:11.203Z,0.00
2018-08-02T07:47:11.190Z,0.00
2018-08-02T07:48:11.178Z,0.00
2018-08-02T07:49:11.209Z,0.00
2018-08-02T07:50:11.151Z,0.00
2018-08-02T07:51:11.141Z,0.00
2018-08-02T07:52:11.125Z,0.00
2018-08-02T07:53:11.111Z,0.00
2018-08-02T07:54:11.099Z,0.00
2018-08-02T07:55:11.088Z,0.00
2018-08-02T07:56:11.117Z,0.00
2018-08-02T07:57:11.060Z,0.00
2018-08-02T07:58:11.047Z,0.00
2018-08-02T07:59:11.037Z,0.00
2018-08-02T08:00:11.022Z,0.00
2018-08-02T08:01:11.009Z,0.00
2018-08-02T08:02:10.996Z,0.00
2018-08-02T08:03:10.984Z,0.00
2018-08-02T08:04:11.010Z,0.00
2018-08-02T08:05:10.958Z,0.00
2018-08-02T08:06:10.945Z,0.00
2018-08-02T08:07:10.933Z,0.00
2018-08-02T08:08:10.922Z,0.00
2018-08-02T08:09:10.910Z,0.00
2018-08-02T08:10:10.896Z,0.00
2018-08-02T08:11:10.947Z,0.00
2018-08-02T08:12:10.877Z,0.00
2018-08-02T08:13:10.856Z,0.00
2018-08-02T08:14:10.845Z,0.00
2018-08-02T08:15:10.832Z,0.00
2018-08-02T08:16:10.880Z,0.00
2018-08-02T08:17:10.805Z,0.00
2018-08-02T08:18:10.809Z,0.00
2018-08-02T08:19:10.779Z,0.00
2018-08-02T08:20:10.836Z,0.00
2018-08-02T08:21:10.753Z,0.00
2018-08-02T08:22:10.740Z,0.00
2018-08-02T08:23:10.757Z,0.00
2018-08-02T08:24:10.735Z,0.00
2018-08-02T08:25:10.761Z,0.00
2018-08-02T08:26:10.688Z,0.00
2018-08-02T08:27:10.675Z,0.00
2018-08-02T08:28:10.663Z,0.00
2018-08-02T08:29:10.650Z,0.00
2018-08-02T08:30:10.636Z,0.00
2018-08-02T08:31:10.623Z,0.00
2018-08-02T08:32:10.640Z,0.00
2018-08-02T08:33:10.597Z,0.00
2018-08-02T08:34:10.592Z,0.00
2018-08-02T08:35:10.572Z,0.00
2018-08-02T08:36:10.719Z,0.00
2018-08-02T08:37:23.471Z,0.00
2018-08-02T08:38:10.532Z,0.00
2018-08-02T08:39:10.519Z,0.00
2018-08-02T08:40:10.507Z,0.00
2018-08-02T08:41:10.492Z,0.00
2018-08-02T08:42:10.480Z,0.00
2018-08-02T08:43:10.467Z,0.00
2018-08-02T08:44:10.456Z,0.00
2018-08-02T08:45:10.443Z,0.00
2018-08-02T08:46:10.432Z,0.00
2018-08-02T08:47:10.430Z,0.00
2018-08-02T08:48:10.403Z,0.00
2018-08-02T08:49:10.389Z,0.00
2018-08-02T08:50:10.377Z,0.00
2018-08-02T08:51:10.364Z,0.00
2018-08-02T08:52:10.394Z,0.00
2018-08-02T08:53:10.337Z,0.00
2018-08-02T08:54:10.324Z,0.00
2018-08-02T08:55:10.311Z,0.00
2018-08-02T08:56:10.304Z,0.00
2018-08-02T08:57:10.285Z,0.00
2018-08-02T08:58:10.272Z,0.00
2018-08-02T08:59:10.260Z,0.00
2018-08-02T09:00:10.247Z,0.00
2018-08-02T09:01:10.233Z,0.00
2018-08-02T09:02:10.220Z,0.00
2018-08-02T09:03:10.233Z,0.00
2018-08-02T09:04:10.195Z,0.00
2018-08-02T09:05:10.184Z,0.00
2018-08-02T09:06:10.168Z,0.00
2018-08-02T09:07:10.155Z,0.00
2018-08-02T09:08:10.143Z,0.00
2018-08-02T09:09:10.129Z,0.00
2018-08-02T09:10:10.119Z,0.00
2018-08-02T09:11:10.103Z,0.00
2018-08-02T09:12:10.091Z,0.00
2018-08-02T09:13:10.080Z,0.00
2018-08-02T09:14:10.065Z,0.00
2018-08-02T09:15:10.055Z,0.00
2018-08-02T09:16:10.039Z,0.00
2018-08-02T09:17:10.027Z,0.00
2018-08-02T09:18:10.013Z,0.00
2018-08-02T09:19:09.999Z,0.00
2018-08-02T09:20:09.991Z,0.00
2018-08-02T09:21:09.973Z,0.00
2018-08-02T09:22:09.961Z,0.00
2018-08-02T09:23:09.948Z,0.00
2018-08-02T09:24:09.937Z,0.00
2018-08-02T09:25:09.922Z,0.00
2018-08-02T09:26:09.911Z,0.00
2018-08-02T09:27:09.959Z,0.00
2018-08-02T09:28:09.884Z,0.00
2018-08-02T09:29:09.871Z,0.00
2018-08-02T09:30:09.858Z,0.00
2018-08-02T09:31:09.845Z,0.00
2018-08-02T09:32:09.864Z,0.00
2018-08-02T09:33:09.917Z,0.00
2018-08-02T09:34:09.807Z,0.00
2018-08-02T09:35:09.797Z,0.00
2018-08-02T09:36:09.782Z,0.00
2018-08-02T09:37:09.768Z,0.00
2018-08-02T09:38:09.756Z,0.00
2018-08-02T09:39:09.744Z,0.00
2018-08-02T09:40:09.732Z,0.00
2018-08-02T09:41:09.718Z,0.00
2018-08-02T09:42:09.707Z,0.00
2018-08-02T09:43:09.694Z,0.00
2018-08-02T09:44:09.682Z,0.00
2018-08-02T09:45:09.668Z,0.00
2018-08-02T09:46:09.655Z,0.00
2018-08-02T09:47:09.661Z,0.00
2018-08-02T09:48:09.630Z,0.00
2018-08-02T09:49:09.617Z,0.00
2018-08-02T09:50:09.603Z,0.00
2018-08-02T09:51:09.596Z,0.00
2018-08-02T09:52:09.579Z,0.00
2018-08-02T09:53:09.565Z,0.00
2018-08-02T09:54:09.553Z,0.00
2018-08-02T09:55:09.541Z,0.00
2018-08-02T09:56:09.529Z,0.00
2018-08-02T09:57:09.516Z,0.00
2018-08-02T09:58:09.502Z,0.00
2018-08-02T09:59:09.496Z,0.00
2018-08-02T10:00:09.477Z,0.00
2018-08-02T10:01:09.463Z,0.00
2018-08-02T10:02:09.450Z,0.00
2018-08-02T10:03:09.442Z,0.00
2018-08-02T10:04:09.427Z,0.00
2018-08-02T10:05:09.413Z,0.00
2018-08-02T10:06:09.400Z,0.00
2018-08-02T10:07:09.387Z,0.00
2018-08-02T10:08:09.375Z,0.00
2018-08-02T10:09:09.362Z,0.00
2018-08-02T10:10:09.358Z,0.00
2018-08-02T10:11:09.340Z,0.00
2018-08-02T10:12:09.324Z,0.00
2018-08-02T10:13:09.312Z,0.00
2018-08-02T10:14:09.299Z,0.00
2018-08-02T10:15:09.288Z,0.00
2018-08-02T10:16:09.293Z,0.00
2018-08-02T10:17:09.260Z,0.00
2018-08-02T10:18:09.248Z,0.00
2018-08-02T10:19:09.236Z,0.00
2018-08-02T10:20:09.374Z,0.00
2018-08-02T10:21:09.210Z,0.00
2018-08-02T10:22:09.197Z,0.00
2018-08-02T10:23:09.185Z,0.00
2018-08-02T10:24:09.172Z,0.00
2018-08-02T10:25:09.159Z,0.00
2018-08-02T10:26:09.147Z,0.00
2018-08-02T10:27:09.135Z,0.00
2018-08-02T10:28:09.122Z,5.63
2018-08-02T10:29:09.108Z,5.63
2018-08-02T10:30:09.099Z,5.63
2018-08-02T10:31:09.084Z,5.63
2018-08-02T10:32:09.071Z,5.63
2018-08-02T10:33:09.058Z,5.63
2018-08-02T10:34:09.045Z,5.63
2018-08-02T10:35:09.034Z,5.63
2018-08-02T10:36:09.022Z,5.63
2018-08-02T10:37:09.007Z,5.63
2018-08-02T10:38:08.995Z,5.63
2018-08-02T10:39:08.983Z,5.63
2018-08-02T10:40:08.971Z,5.63
2018-08-02T10:41:08.957Z,5.63
2018-08-02T10:42:08.945Z,11.25
2018-08-02T10:43:08.932Z,5.63
2018-08-02T10:44:08.920Z,5.63
2018-08-02T10:45:08.908Z,5.63
2018-08-02T10:46:08.895Z,5.63
2018-08-02T10:47:08.884Z,5.63
2018-08-02T10:48:08.871Z,5.63
2018-08-02T10:49:08.857Z,0.00
2018-08-02T10:50:08.847Z,0.00
2018-08-02T10:51:08.832Z,5.63
2018-08-02T10:52:08.820Z,5.63
2018-08-02T10:53:08.807Z,5.63
2018-08-02T10:54:08.795Z,5.63
2018-08-02T10:55:08.782Z,5.63
2018-08-02T10:56:08.812Z,5.63
2018-08-02T10:57:08.757Z,5.63
2018-08-02T10:58:08.745Z,11.25
2018-08-02T10:59:08.734Z,11.25
2018-08-02T11:00:08.721Z,11.25
2018-08-02T11:01:08.710Z,11.25
2018-08-02T11:02:08.754Z,11.25
2018-08-02T11:03:08.683Z,11.25
2018-08-02T11:04:08.671Z,11.25
2018-08-02T11:05:08.661Z,5.63
2018-08-02T11:06:08.681Z,5.63
2018-08-02T11:07:08.671Z,11.25
2018-08-02T11:08:08.627Z,11.25
2018-08-02T11:09:08.610Z,11.25
2018-08-02T11:10:08.598Z,11.25
2018-08-02T11:11:08.587Z,11.25
2018-08-02T11:12:08.573Z,11.25
2018-08-02T11:13:08.560Z,11.25
2018-08-02T11:14:08.548Z,5.63
2018-08-02T11:15:08.536Z,5.63
2018-08-02T11:16:08.524Z,11.25
2018-08-02T11:17:08.513Z,11.25
2018-08-02T11:18:08.500Z,11.25
2018-08-02T11:19:08.487Z,16.88
2018-08-02T11:20:08.476Z,11.25
2018-08-02T11:21:08.465Z,11.25
2018-08-02T11:22:08.450Z,16.88
2018-08-02T11:23:08.439Z,16.88
2018-08-02T11:24:08.432Z,16.88
2018-08-02T11:25:08.421Z,16.88
2018-08-02T11:26:08.402Z,16.88
2018-08-02T11:27:08.390Z,16.88
2018-08-02T11:28:08.379Z,16.88
2018-08-02T11:29:08.366Z,16.88
2018-08-02T11:30:08.354Z,16.88
2018-08-02T11:31:08.343Z,16.88
2018-08-02T11:32:08.331Z,16.88
2018-08-02T11:33:08.317Z,16.88
2018-08-02T11:34:08.307Z,16.88
2018-08-02T11:35:08.293Z,16.88
2018-08-02T11:36:08.282Z,11.25
2018-08-02T11:37:08.269Z,11.25
2018-08-02T11:38:08.257Z,11.25
2018-08-02T11:39:08.246Z,11.25
2018-08-02T11:40:08.234Z,11.25
2018-08-02T11:41:08.221Z,11.25
2018-08-02T11:42:08.209Z,16.88
2018-08-02T11:43:08.197Z,11.25
2018-08-02T11:44:08.187Z,11.25
2018-08-02T11:45:08.173Z,11.25
2018-08-02T11:46:08.160Z,16.88
2018-08-02T11:47:08.149Z,16.88
2018-08-02T11:48:08.141Z,11.25
2018-08-02T11:49:08.126Z,16.88
2018-08-02T11:50:08.313Z,16.88
2018-08-02T11:51:08.162Z,16.88
2018-08-02T11:52:08.090Z,16.88
2018-08-02T11:53:08.077Z,11.25
2018-08-02T11:54:08.065Z,11.25
2018-08-02T11:55:08.056Z,11.25
2018-08-02T11:56:08.293Z,11.25
2018-08-02T11:57:08.135Z,11.25
2018-08-02T11:58:08.017Z,11.25
2018-08-02T11:59:08.006Z,11.25
2018-08-02T12:00:07.996Z,16.88
2018-08-02T12:01:07.981Z,16.88
2018-08-02T12:02:08.024Z,16.88
2018-08-02T12:03:07.982Z,16.88
2018-08-02T12:04:07.946Z,22.50
2018-08-02T12:05:07.942Z,22.50
2018-08-02T12:06:07.923Z,16.88
2018-08-02T12:07:07.912Z,11.25
2018-08-02T12:08:07.944Z,16.88
2018-08-02T12:09:07.892Z,16.88
2018-08-02T12:10:07.875Z,16.88
2018-08-02T12:11:07.865Z,16.88
2018-08-02T12:12:07.857Z,22.50
2018-08-02T12:13:07.846Z,22.50
2018-08-02T12:14:07.834Z,22.50
2018-08-02T12:15:07.828Z,28.13
2018-08-02T12:16:07.814Z,28.13
2018-08-02T12:17:07.802Z,28.13
2018-08-02T12:18:07.802Z,28.13
2018-08-02T12:19:07.801Z,28.13
2018-08-02T12:20:07.805Z,28.13
2018-08-02T12:21:07.754Z,28.13
2018-08-02T12:22:07.811Z,28.13
2018-08-02T12:23:07.737Z,28.13
2018-08-02T12:24:07.806Z,28.13
2018-08-02T12:25:07.733Z,28.13
2018-08-02T12:26:07.693Z,28.13
2018-08-02T12:27:07.685Z,28.13
2018-08-02T12:28:07.671Z,28.13
2018-08-02T12:29:07.702Z,28.13
2018-08-02T12:30:07.644Z,28.13
2018-08-02T12:31:07.634Z,28.13
2018-08-02T12:32:07.626Z,33.75
2018-08-02T12:33:07.610Z,33.75
2018-08-02T12:34:07.599Z,33.75
2018-08-02T12:35:07.590Z,33.75
2018-08-02T12:36:07.578Z,33.75
2018-08-02T12:37:07.642Z,33.75
2018-08-02T12:38:07.557Z,33.75
2018-08-02T12:39:07.544Z,33.75
2018-08-02T12:40:07.532Z,28.13
2018-08-02T12:41:07.523Z,33.75
2018-08-02T12:42:07.512Z,33.75
2018-08-02T12:43:07.500Z,33.75
2018-08-02T12:44:07.488Z,39.38
2018-08-02T12:45:07.476Z,39.38
2018-08-02T12:46:07.521Z,39.38
2018-08-02T12:47:07.474Z,39.38
2018-08-02T12:48:07.453Z,39.38
2018-08-02T12:49:07.436Z,39.38
2018-08-02T12:50:07.425Z,45.00
2018-08-02T12:51:07.415Z,50.63
2018-08-02T12:52:07.405Z,50.63
2018-08-02T12:53:07.422Z,50.63
2018-08-02T12:54:07.382Z,50.63
2018-08-02T12:55:07.371Z,61.88
2018-08-02T12:56:07.484Z,67.50
2018-08-02T12:57:07.350Z,56.25
2018-08-02T12:58:07.340Z,50.63
2018-08-02T12:59:07.330Z,50.63
2018-08-02T13:00:07.318Z,50.63
2018-08-02T13:01:07.307Z,50.63
2018-08-02T13:02:07.298Z,50.63
2018-08-02T13:03:07.303Z,50.63
2018-08-02T13:04:07.276Z,56.25
2018-08-02T13:05:07.265Z,50.63
2018-08-02T13:06:07.257Z,50.63
2018-08-02T13:07:07.246Z,50.63
2018-08-02T13:08:07.235Z,50.63
2018-08-02T13:09:07.281Z,50.63
2018-08-02T13:10:07.213Z,50.63
2018-08-02T13:12:07.197Z,45.00
2018-08-02T13:13:07.184Z,50.63
2018-08-02T13:14:07.176Z,45.00
2018-08-02T13:15:07.164Z,39.38